createdAt,value
2023-04-08T00:01:07.370Z,3.65
2023-04-08T00:03:34.444Z,3.22
2023-04-08T00:06:03.172Z,4.15
2023-04-08T00:08:30.592Z,3.53
2023-04-08T00:10:57.756Z,3.58
2023-04-08T00:13:24.696Z,3.35
2023-04-08T00:15:51.702Z,2.67
2023-04-08T00:18:18.819Z,4.05
2023-04-08T00:20:45.887Z,3.10
2023-04-08T00:23:12.836Z,3.22
2023-04-08T00:25:39.817Z,2.85
2023-04-08T00:28:06.924Z,3.03
2023-04-08T00:30:33.885Z,3.47
2023-04-08T00:33:03.042Z,3.13
2023-04-08T00:35:30.174Z,3.65
2023-04-08T00:37:57.289Z,2.60
2023-04-08T00:40:24.232Z,3.60
2023-04-08T00:42:51.224Z,2.53
2023-04-08T00:45:18.179Z,3.03
2023-04-08T00:47:46.653Z,3.97
2023-04-08T00:50:13.642Z,3.67
2023-04-08T00:52:40.794Z,2.80
2023-04-08T00:55:07.978Z,3.08
2023-04-08T00:57:35.323Z,2.97
2023-04-08T01:00:05.856Z,3.25
2023-04-08T01:02:54.373Z,4.13
2023-04-08T01:05:39.879Z,3.50
2023-04-08T01:08:08.388Z,3.53
2023-04-08T01:10:37.765Z,3.13
2023-04-08T01:13:12.014Z,3.33
2023-04-08T01:15:41.274Z,4.00
2023-04-08T01:18:13.979Z,2.90
2023-04-08T01:20:43.178Z,3.80
2023-04-08T01:23:28.663Z,2.63
2023-04-08T01:25:57.111Z,2.67
2023-04-08T01:28:28.125Z,3.10
2023-04-08T01:33:28.905Z,2.42
2023-04-08T01:35:57.599Z,3.55
2023-04-08T01:38:26.619Z,4.03
2023-04-08T01:40:55.668Z,4.45
2023-04-08T01:43:24.380Z,3.78
2023-04-08T01:45:54.451Z,2.92
2023-04-08T01:48:22.284Z,2.77
2023-04-08T01:50:51.309Z,3.67
2023-04-08T01:53:18.442Z,3.20
2023-04-08T01:55:49.318Z,3.10
2023-04-08T01:58:21.726Z,2.45
2023-04-08T02:00:51.554Z,3.17
2023-04-08T02:03:22.776Z,2.85
2023-04-08T02:05:50.190Z,3.13
2023-04-08T02:08:17.144Z,3.42
2023-04-08T02:10:44.110Z,2.58
2023-04-08T02:13:11.016Z,2.72
2023-04-08T02:15:45.380Z,3.00
2023-04-08T02:18:29.232Z,3.30
2023-04-08T02:21:17.743Z,3.30
2023-04-08T02:23:50.103Z,3.63
2023-04-08T02:26:19.268Z,3.08
2023-04-08T02:28:49.664Z,3.17
2023-04-08T02:31:18.373Z,3.17
2023-04-08T02:33:46.581Z,3.05
2023-04-08T02:36:15.545Z,3.17
2023-04-08T02:38:42.566Z,3.58
2023-04-08T02:41:09.483Z,3.92
2023-04-08T02:43:36.784Z,4.03
2023-04-08T02:46:07.214Z,4.28
2023-04-08T02:48:36.557Z,3.05
2023-04-08T02:51:03.680Z,3.40
2023-04-08T02:53:30.783Z,3.40
2023-04-08T02:55:57.758Z,3.92
2023-04-08T02:58:24.679Z,3.10
2023-04-08T03:00:51.724Z,3.20
2023-04-08T03:03:18.733Z,3.45
2023-04-08T03:05:45.909Z,3.20
2023-04-08T03:08:12.854Z,2.95
2023-04-08T03:10:39.816Z,3.58
2023-04-08T03:13:06.729Z,2.78
2023-04-08T03:15:33.649Z,2.88
2023-04-08T03:18:00.768Z,2.80
2023-04-08T03:20:27.744Z,3.55
2023-04-08T03:22:54.685Z,2.72
2023-04-08T03:25:21.652Z,3.10
2023-04-08T03:27:48.654Z,2.95
2023-04-08T03:30:15.824Z,2.65
2023-04-08T03:32:43.016Z,3.63
2023-04-08T03:35:10.409Z,2.95
2023-04-08T03:37:37.326Z,2.42
2023-04-08T03:40:05.332Z,3.60
2023-04-08T03:42:32.373Z,2.90
2023-04-08T03:44:59.284Z,4.10
2023-04-08T03:47:27.180Z,3.50
2023-04-08T03:49:56.853Z,2.78
2023-04-08T03:52:24.938Z,2.83
2023-04-08T03:54:51.866Z,2.30
2023-04-08T03:57:18.789Z,4.07
2023-04-08T03:59:45.714Z,3.33
2023-04-08T04:02:12.789Z,3.28
2023-04-08T04:04:39.898Z,3.05
2023-04-08T04:07:06.898Z,3.00
2023-04-08T04:09:33.923Z,3.05
2023-04-08T04:12:01.127Z,2.90
2023-04-08T04:14:28.116Z,3.45
2023-04-08T04:16:55.156Z,3.67
2023-04-08T04:19:22.087Z,3.20
2023-04-08T04:21:49.053Z,3.63
2023-04-08T04:24:16.028Z,2.65
2023-04-08T04:26:42.964Z,3.13
2023-04-08T04:29:09.908Z,3.30
2023-04-08T04:31:37.059Z,3.63
2023-04-08T04:34:04.173Z,3.38
2023-04-08T04:36:32.020Z,2.97
2023-04-08T04:38:59.045Z,2.50
2023-04-08T04:41:27.169Z,2.92
2023-04-08T04:43:54.177Z,3.80
2023-04-08T04:46:21.366Z,3.10
2023-04-08T04:48:48.411Z,4.53
2023-04-08T04:51:15.567Z,3.40
2023-04-08T04:53:42.604Z,3.25
2023-04-08T04:56:09.520Z,3.50
2023-04-08T04:58:36.561Z,2.85
2023-04-08T05:01:03.586Z,2.95
2023-04-08T05:03:31.194Z,3.22
2023-04-08T05:05:58.186Z,3.15
2023-04-08T05:08:27.343Z,4.47
2023-04-08T05:10:56.008Z,3.08
2023-04-08T05:13:22.949Z,3.10
2023-04-08T05:15:49.938Z,2.95
2023-04-08T05:18:16.930Z,3.40
2023-04-08T05:20:43.888Z,3.35
2023-04-08T05:23:10.893Z,2.92
2023-04-08T05:25:38.002Z,3.97
2023-04-08T05:28:04.991Z,2.97
2023-04-08T05:30:31.927Z,3.53
2023-04-08T05:33:00.617Z,3.25
2023-04-08T05:35:28.777Z,3.40
2023-04-08T05:37:55.972Z,3.50
2023-04-08T05:40:23.414Z,3.13
2023-04-08T05:42:50.358Z,3.38
2023-04-08T05:45:17.477Z,3.03
2023-04-08T05:47:44.544Z,3.25
2023-04-08T05:50:11.621Z,3.72
2023-04-08T05:52:44.631Z,3.25
2023-04-08T05:55:14.925Z,3.13
2023-04-08T05:57:42.277Z,2.88
2023-04-08T06:00:11.077Z,3.72
2023-04-08T06:02:38.893Z,3.58
2023-04-08T06:05:06.739Z,3.50
2023-04-08T06:07:34.490Z,4.22
2023-04-08T06:10:02.108Z,3.72
2023-04-08T06:12:29.441Z,3.40
2023-04-08T06:14:56.530Z,3.08
2023-04-08T06:17:24.004Z,3.47
2023-04-08T06:19:51.051Z,3.15
2023-04-08T06:22:18.038Z,3.45
2023-04-08T06:24:46.977Z,3.13
2023-04-08T06:27:14.110Z,3.65
2023-04-08T06:29:42.952Z,4.72
2023-04-08T06:32:10.729Z,3.65
2023-04-08T06:34:38.110Z,3.42
2023-04-08T06:37:06.107Z,4.30
2023-04-08T06:39:33.763Z,4.45
2023-04-08T06:42:00.824Z,4.07
2023-04-08T06:44:37.543Z,4.82
2023-04-08T06:47:04.439Z,3.95
2023-04-08T06:49:31.377Z,3.38
2023-04-08T06:51:58.352Z,4.70
2023-04-08T06:54:25.582Z,3.80
2023-04-08T06:56:52.498Z,3.40
2023-04-08T06:59:19.457Z,3.60
2023-04-08T07:01:46.741Z,4.93
2023-04-08T07:04:13.802Z,4.35
2023-04-08T07:06:40.903Z,4.22
2023-04-08T07:09:08.205Z,4.40
2023-04-08T07:11:35.303Z,3.75
2023-04-08T07:14:02.761Z,3.78
2023-04-08T07:16:29.709Z,5.18
2023-04-08T07:18:56.943Z,4.28
2023-04-08T07:21:23.925Z,6.22
2023-04-08T07:23:50.961Z,4.63
2023-04-08T07:26:17.905Z,4.88
2023-04-08T07:28:44.932Z,4.60
2023-04-08T07:31:17.629Z,4.72
2023-04-08T07:33:45.850Z,4.80
2023-04-08T07:36:14.220Z,4.45
2023-04-08T07:38:41.280Z,3.75
2023-04-08T07:41:08.254Z,4.13
2023-04-08T07:43:37.004Z,5.10
2023-04-08T07:46:05.694Z,5.07
2023-04-08T07:48:33.640Z,5.25
2023-04-08T07:51:08.303Z,4.55
2023-04-08T07:53:39.240Z,4.55
2023-04-08T07:56:18.181Z,4.80
2023-04-08T07:58:46.466Z,5.07
2023-04-08T08:01:22.518Z,5.72
2023-04-08T08:03:52.570Z,4.88
2023-04-08T08:06:20.614Z,4.88
2023-04-08T08:08:47.654Z,4.90
2023-04-08T08:11:14.698Z,5.10
2023-04-08T08:13:41.631Z,5.22
2023-04-08T08:16:11.383Z,5.03
2023-04-08T08:18:40.053Z,5.90
2023-04-08T08:21:07.715Z,5.20
2023-04-08T08:23:34.770Z,6.28
2023-04-08T08:26:07.641Z,6.30
2023-04-08T08:28:34.645Z,6.97
2023-04-08T08:31:02.288Z,5.57
2023-04-08T08:33:29.371Z,7.05
2023-04-08T08:35:57.930Z,5.93
2023-04-08T08:38:26.046Z,5.78
2023-04-08T08:41:00.095Z,5.25
2023-04-08T08:43:28.908Z,5.63
2023-04-08T08:45:56.362Z,6.43
2023-04-08T08:48:23.337Z,5.75
2023-04-08T08:50:50.399Z,6.63
2023-04-08T08:53:19.508Z,5.70
2023-04-08T08:56:15.774Z,5.57
2023-04-08T08:58:33.511Z,5.43
2023-04-08T09:01:00.956Z,5.60
2023-04-08T09:03:29.067Z,5.00
2023-04-08T09:06:01.934Z,5.85
2023-04-08T09:08:37.070Z,5.40
2023-04-08T09:11:19.254Z,6.30
2023-04-08T09:13:47.330Z,5.53
2023-04-08T09:16:18.287Z,4.93
2023-04-08T09:18:49.311Z,5.63
2023-04-08T09:21:18.002Z,5.45
2023-04-08T09:23:48.866Z,5.22
2023-04-08T09:26:22.826Z,5.60
2023-04-08T09:29:24.350Z,5.78
2023-04-08T09:31:58.004Z,5.93
2023-04-08T09:34:27.391Z,6.47
2023-04-08T09:36:55.707Z,4.97
2023-04-08T09:39:22.857Z,6.15
2023-04-08T09:41:54.858Z,6.10
2023-04-08T09:44:26.579Z,6.07
2023-04-08T09:47:10.065Z,5.32
2023-04-08T09:49:58.336Z,5.47
2023-04-08T09:52:36.921Z,5.53
2023-04-08T09:55:12.435Z,5.72
2023-04-08T09:58:01.315Z,5.25
2023-04-08T10:00:34.399Z,5.70
2023-04-08T10:03:48.522Z,5.18
2023-04-08T10:06:17.002Z,6.13
2023-04-08T10:08:45.128Z,4.45
2023-04-08T10:11:12.334Z,5.47
2023-04-08T10:13:39.331Z,5.57
2023-04-08T10:16:27.316Z,5.40
2023-04-08T10:18:58.048Z,4.95
2023-04-08T10:21:37.465Z,5.45
2023-04-08T10:24:11.961Z,5.90
2023-04-08T10:26:45.107Z,5.10
2023-04-08T10:29:20.686Z,7.47
2023-04-08T10:31:50.497Z,5.20
2023-04-08T10:34:19.086Z,4.97
2023-04-08T10:36:46.625Z,6.25
2023-04-08T10:39:15.848Z,6.50
2023-04-08T10:41:44.169Z,4.82
2023-04-08T10:44:27.391Z,6.43
2023-04-08T10:46:55.570Z,5.97
2023-04-08T10:49:22.624Z,5.55
2023-04-08T10:51:49.799Z,7.95
2023-04-08T10:54:18.536Z,4.45
2023-04-08T10:56:52.378Z,4.82
2023-04-08T10:59:34.742Z,4.78
2023-04-08T11:02:02.448Z,5.93
2023-04-08T11:04:29.908Z,4.93
2023-04-08T11:06:58.194Z,5.65
2023-04-08T11:09:25.140Z,5.28
2023-04-08T11:11:53.524Z,5.70
2023-04-08T11:14:21.905Z,5.45
2023-04-08T11:16:49.084Z,6.78
2023-04-08T11:19:16.054Z,5.72
2023-04-08T11:21:43.170Z,6.45
2023-04-08T11:24:16.390Z,4.88
2023-04-08T11:26:43.637Z,5.30
2023-04-08T11:29:14.542Z,5.15
2023-04-08T11:31:43.817Z,8.13
2023-04-08T11:34:11.053Z,7.38
2023-04-08T11:36:41.577Z,4.72
2023-04-08T11:39:10.037Z,5.65
2023-04-08T11:41:41.843Z,7.18
2023-04-08T11:44:09.287Z,6.00
2023-04-08T11:46:36.540Z,5.85
2023-04-08T11:49:08.554Z,7.32
2023-04-08T11:51:54.862Z,5.40
2023-04-08T11:54:33.186Z,3.58
2023-04-08T11:57:00.784Z,4.43
2023-04-08T11:59:29.660Z,6.53
2023-04-08T12:01:57.245Z,5.60
2023-04-08T12:04:24.374Z,4.68
2023-04-08T12:06:52.283Z,5.38
2023-04-08T12:09:19.274Z,5.40
2023-04-08T12:11:46.608Z,4.22
2023-04-08T12:14:13.860Z,5.03
2023-04-08T12:16:41.206Z,4.72
2023-04-08T12:19:08.179Z,4.53
2023-04-08T12:21:36.000Z,7.93
2023-04-08T12:24:03.112Z,5.93
2023-04-08T12:26:30.204Z,5.07
2023-04-08T12:28:57.151Z,4.45
2023-04-08T12:31:24.144Z,4.38
2023-04-08T12:33:51.230Z,4.25
2023-04-08T12:36:18.409Z,5.00
2023-04-08T12:38:45.898Z,3.95
2023-04-08T12:41:12.922Z,5.03
2023-04-08T12:43:39.876Z,4.22
2023-04-08T12:46:07.278Z,5.15
2023-04-08T12:48:34.246Z,4.75
2023-04-08T12:51:01.192Z,4.10
2023-04-08T12:53:28.142Z,4.80
2023-04-08T12:55:57.257Z,4.72
2023-04-08T12:58:27.878Z,4.60
2023-04-08T13:00:54.944Z,4.03
2023-04-08T13:03:22.408Z,5.05
2023-04-08T13:05:49.581Z,4.57
2023-04-08T13:08:17.533Z,6.20
2023-04-08T13:10:44.527Z,5.13
2023-04-08T13:13:14.064Z,5.20
2023-04-08T13:15:41.039Z,3.65
2023-04-08T13:18:08.249Z,4.75
2023-04-08T13:20:35.461Z,4.03
2023-04-08T13:23:02.635Z,4.40
2023-04-08T13:25:29.682Z,4.57
2023-04-08T13:27:56.727Z,4.47
2023-04-08T13:30:23.900Z,4.45
2023-04-08T13:32:51.150Z,3.42
2023-04-08T13:35:18.184Z,3.55
2023-04-08T13:37:45.216Z,5.60
2023-04-08T13:40:12.378Z,3.80
2023-04-08T13:42:39.405Z,4.32
2023-04-08T13:45:07.139Z,7.00
2023-04-08T13:47:35.765Z,9.45
2023-04-08T13:50:04.591Z,4.47
2023-04-08T13:52:31.632Z,5.53
2023-04-08T13:54:58.575Z,5.55
2023-04-08T13:57:25.629Z,6.50
2023-04-08T13:59:52.723Z,3.40
2023-04-08T14:02:19.707Z,4.88
2023-04-08T14:04:46.907Z,3.97
2023-04-08T14:07:15.348Z,3.33
2023-04-08T14:09:42.387Z,3.53
2023-04-08T14:12:09.975Z,3.00
2023-04-08T14:14:36.909Z,4.63
2023-04-08T14:17:04.259Z,3.60
2023-04-08T14:19:32.061Z,3.10
2023-04-08T14:21:59.006Z,3.60
2023-04-08T14:24:26.046Z,3.42
2023-04-08T14:26:52.972Z,2.65
2023-04-08T14:29:20.166Z,4.97
2023-04-08T14:31:47.250Z,2.85
2023-04-08T14:34:14.204Z,2.60
2023-04-08T14:36:41.148Z,3.92
2023-04-08T14:39:08.110Z,3.05
2023-04-08T14:41:35.064Z,2.85
2023-04-08T14:44:01.977Z,2.67
2023-04-08T14:46:29.331Z,2.88
2023-04-08T14:48:56.755Z,2.45
2023-04-08T14:51:23.678Z,2.92
2023-04-08T14:53:50.725Z,2.40
2023-04-08T14:56:17.685Z,3.13
2023-04-08T14:58:44.607Z,3.28
2023-04-08T15:01:11.896Z,3.38
2023-04-08T15:03:39.058Z,3.38
2023-04-08T15:06:07.126Z,2.92
2023-04-08T15:08:35.004Z,3.65
2023-04-08T15:11:02.036Z,3.20
2023-04-08T15:13:28.976Z,4.05
2023-04-08T15:15:55.974Z,5.70
2023-04-08T15:18:23.001Z,4.40
2023-04-08T15:20:49.921Z,3.85
2023-04-08T15:23:17.247Z,3.33
2023-04-08T15:25:44.178Z,3.28
2023-04-08T15:28:11.226Z,5.85
2023-04-08T15:30:38.215Z,3.15
2023-04-08T15:33:05.623Z,2.60
2023-04-08T15:35:33.464Z,2.67
2023-04-08T15:38:00.698Z,3.78
2023-04-08T15:40:28.032Z,3.38
2023-04-08T15:42:55.771Z,4.90
2023-04-08T15:45:22.938Z,3.30
2023-04-08T15:47:49.909Z,2.08
2023-04-08T15:50:17.398Z,1.92
2023-04-08T15:52:45.075Z,2.35
2023-04-08T15:55:12.159Z,1.77
2023-04-08T15:57:39.141Z,1.80
2023-04-08T16:00:11.068Z,1.80
2023-04-08T16:02:41.067Z,1.27
2023-04-08T16:05:09.060Z,2.40
2023-04-08T16:07:36.184Z,3.00
2023-04-08T16:10:03.207Z,2.70
2023-04-08T16:12:30.342Z,2.30
2023-04-08T16:14:57.832Z,2.75
2023-04-08T16:17:24.845Z,2.03
2023-04-08T16:19:52.253Z,3.00
2023-04-08T16:22:19.494Z,2.40
2023-04-08T16:24:46.427Z,1.60
2023-04-08T16:27:13.546Z,2.58
2023-04-08T16:29:40.581Z,2.33
2023-04-08T16:32:08.752Z,2.05
2023-04-08T16:34:36.042Z,2.67
2023-04-08T16:37:03.062Z,2.58
2023-04-08T16:39:30.068Z,1.73
2023-04-08T16:41:57.154Z,2.70
2023-04-08T16:44:24.176Z,2.67
2023-04-08T16:46:51.294Z,2.05
2023-04-08T16:49:18.567Z,1.80
2023-04-08T16:51:45.671Z,3.65
2023-04-08T16:54:12.679Z,2.05
2023-04-08T16:56:44.203Z,1.77
2023-04-08T16:59:12.465Z,3.60
2023-04-08T17:01:39.481Z,1.60
2023-04-08T17:04:06.698Z,2.25
2023-04-08T17:06:35.658Z,2.53
2023-04-08T17:09:03.898Z,2.65
2023-04-08T17:11:31.150Z,2.35
2023-04-08T17:13:58.284Z,2.10
2023-04-08T17:16:25.390Z,2.00
2023-04-08T17:18:52.771Z,1.75
2023-04-08T17:21:20.075Z,2.88
2023-04-08T17:23:47.258Z,2.05
2023-04-08T17:26:14.542Z,1.98
2023-04-08T17:28:41.614Z,1.70
2023-04-08T17:31:09.313Z,2.42
2023-04-08T17:33:36.315Z,2.85
2023-04-08T17:36:03.482Z,4.05
2023-04-08T17:38:30.558Z,2.35
2023-04-08T17:40:57.570Z,2.22
2023-04-08T17:43:24.650Z,2.65
2023-04-08T17:45:51.709Z,2.35
2023-04-08T17:48:18.728Z,2.10
2023-04-08T17:50:46.540Z,3.65
2023-04-08T17:53:13.616Z,2.25
2023-04-08T17:55:40.585Z,8.02
2023-04-08T17:58:07.572Z,2.22
2023-04-08T18:00:34.568Z,2.00
2023-04-08T18:03:01.685Z,2.17
2023-04-08T18:05:29.975Z,3.55
2023-04-08T18:07:58.156Z,2.30
2023-04-08T18:10:25.333Z,2.05
2023-04-08T18:13:00.563Z,1.67
2023-04-08T18:15:40.850Z,1.88
2023-04-08T18:18:07.819Z,2.10
2023-04-08T18:20:38.071Z,2.67
2023-04-08T18:23:05.360Z,2.42
2023-04-08T18:25:34.390Z,2.35
2023-04-08T18:28:01.790Z,1.73
2023-04-08T18:30:30.034Z,3.25
2023-04-08T18:32:57.106Z,2.05
2023-04-08T18:35:25.369Z,2.88
2023-04-08T18:37:52.337Z,2.55
2023-04-08T18:40:19.345Z,2.67
2023-04-08T18:42:46.254Z,3.05
2023-04-08T18:45:13.171Z,3.45
2023-04-08T18:47:40.155Z,3.75
2023-04-08T18:50:07.709Z,2.22
2023-04-08T18:52:34.854Z,2.03
2023-04-08T18:55:02.583Z,2.05
2023-04-08T18:57:29.643Z,2.17
2023-04-08T18:59:56.608Z,2.58
2023-04-08T19:02:23.681Z,3.17
2023-04-08T19:04:50.750Z,2.55
2023-04-08T19:07:17.976Z,3.35
2023-04-08T19:09:44.965Z,2.25
2023-04-08T19:12:11.932Z,3.60
2023-04-08T19:14:39.510Z,3.20
2023-04-08T19:17:06.687Z,2.42
2023-04-08T19:19:33.658Z,3.78
2023-04-08T19:22:02.770Z,2.78
2023-04-08T19:24:29.793Z,2.83
2023-04-08T19:26:57.088Z,3.53
2023-04-08T19:29:24.447Z,3.10
2023-04-08T19:31:52.687Z,3.33
2023-04-08T19:34:19.621Z,3.13
2023-04-08T19:36:47.696Z,3.00
2023-04-08T19:39:14.622Z,2.63
2023-04-08T19:41:41.651Z,2.95
2023-04-08T19:44:08.608Z,3.70
2023-04-08T19:46:35.627Z,2.88
2023-04-08T19:49:03.375Z,3.42
2023-04-08T19:51:32.660Z,4.15
2023-04-08T19:53:59.823Z,3.20
2023-04-08T19:56:27.793Z,4.82
2023-04-08T19:58:54.917Z,5.95
2023-04-08T20:01:22.229Z,3.58
2023-04-08T20:03:52.614Z,2.80
2023-04-08T20:06:20.692Z,4.07
2023-04-08T20:08:50.023Z,3.40
2023-04-08T20:11:17.261Z,2.58
2023-04-08T20:13:44.372Z,2.47
2023-04-08T20:16:11.736Z,3.42
2023-04-08T20:18:38.888Z,3.78
2023-04-08T20:21:07.315Z,3.40
2023-04-08T20:23:34.575Z,3.17
2023-04-08T20:26:02.123Z,3.38
2023-04-08T20:28:29.222Z,3.38
2023-04-08T20:30:56.507Z,2.92
2023-04-08T20:33:23.674Z,3.28
2023-04-08T20:35:53.043Z,3.45
2023-04-08T20:38:20.118Z,2.35
2023-04-08T20:40:47.104Z,3.13
2023-04-08T20:43:14.125Z,2.95
2023-04-08T20:45:41.145Z,3.95
2023-04-08T20:48:08.460Z,2.75
2023-04-08T20:50:35.493Z,2.50
2023-04-08T20:53:02.912Z,2.97
2023-04-08T20:55:29.845Z,3.63
2023-04-08T20:57:56.762Z,4.82
2023-04-08T21:00:23.812Z,3.88
2023-04-08T21:02:50.944Z,2.90
2023-04-08T21:05:18.173Z,3.80
2023-04-08T21:07:45.296Z,3.55
2023-04-08T21:10:14.101Z,2.88
2023-04-08T21:12:41.101Z,3.17
2023-04-08T21:15:09.007Z,4.65
2023-04-08T21:17:36.000Z,3.78
2023-04-08T21:20:04.319Z,3.53
2023-04-08T21:22:32.400Z,4.20
2023-04-08T21:24:59.353Z,3.95
2023-04-08T21:27:27.916Z,4.05
2023-04-08T21:29:54.891Z,4.38
2023-04-08T21:32:21.905Z,4.43
2023-04-08T21:34:48.924Z,4.22
2023-04-08T21:37:15.957Z,4.53
2023-04-08T21:39:42.904Z,3.90
2023-04-08T21:42:09.896Z,3.10
2023-04-08T21:44:36.944Z,4.30
2023-04-08T21:47:03.999Z,4.97
2023-04-08T21:49:31.437Z,5.90
2023-04-08T21:51:58.454Z,4.97
2023-04-08T21:54:25.488Z,4.28
2023-04-08T21:56:52.463Z,3.85
2023-04-08T21:59:19.923Z,5.45
2023-04-08T22:01:46.981Z,4.80
2023-04-08T22:04:14.065Z,6.88
2023-04-08T22:06:41.256Z,4.40
2023-04-08T22:09:08.257Z,5.50
2023-04-08T22:11:35.246Z,4.57
2023-04-08T22:14:02.190Z,4.50
2023-04-08T22:16:29.244Z,5.07
2023-04-08T22:18:56.322Z,4.65
2023-04-08T22:21:23.727Z,4.70
2023-04-08T22:23:50.875Z,4.93
2023-04-08T22:26:17.841Z,5.78
2023-04-08T22:28:44.826Z,5.18
2023-04-08T22:31:12.523Z,4.40
2023-04-08T22:33:40.085Z,5.47
2023-04-08T22:36:07.449Z,4.35
2023-04-08T22:38:34.438Z,4.25
2023-04-08T22:41:01.487Z,5.90
2023-04-08T22:43:28.448Z,4.90
2023-04-08T22:45:55.723Z,5.15
2023-04-08T22:48:22.705Z,4.50
2023-04-08T22:50:49.627Z,5.90
2023-04-08T22:53:16.590Z,5.03
2023-04-08T22:55:43.547Z,6.03
2023-04-08T22:58:10.814Z,5.93
2023-04-08T23:00:37.740Z,5.50
2023-04-08T23:03:04.913Z,4.97
2023-04-08T23:05:32.197Z,4.25
2023-04-08T23:07:59.153Z,5.07
2023-04-08T23:10:26.148Z,4.78
2023-04-08T23:12:53.203Z,4.32
2023-04-08T23:15:20.474Z,4.90
2023-04-08T23:17:47.466Z,4.90
2023-04-08T23:20:14.478Z,4.30
2023-04-08T23:22:41.487Z,4.13
2023-04-08T23:25:09.161Z,4.70
2023-04-08T23:27:36.197Z,5.72
2023-04-08T23:30:05.656Z,4.90
2023-04-08T23:32:33.971Z,4.20
2023-04-08T23:35:02.022Z,5.00
2023-04-08T23:37:29.764Z,5.93
2023-04-08T23:39:56.714Z,5.15
2023-04-08T23:42:27.149Z,6.20
2023-04-08T23:44:55.179Z,5.07
2023-04-08T23:47:22.368Z,5.80
2023-04-08T23:49:49.474Z,6.15
2023-04-08T23:52:16.613Z,6.22
2023-04-08T23:54:43.770Z,5.68
2023-04-08T23:57:10.680Z,6.85
2023-04-08T23:59:37.643Z,6.25
